createdAt,value
2023-05-16T00:00:34.182Z,14.52
2023-05-16T00:01:34.262Z,14.66
2023-05-16T00:02:34.409Z,14.67
2023-05-16T00:03:34.441Z,14.62
2023-05-16T00:04:34.165Z,14.62
2023-05-16T00:05:34.047Z,14.66
2023-05-16T00:06:33.915Z,14.55
2023-05-16T00:07:34.055Z,14.58
2023-05-16T00:08:33.823Z,14.63
2023-05-16T00:09:35.095Z,14.62
2023-05-16T00:10:33.764Z,14.55
2023-05-16T00:11:33.693Z,14.55
2023-05-16T00:12:33.680Z,14.58
2023-05-16T00:13:33.694Z,14.59
2023-05-16T00:14:33.559Z,14.61
2023-05-16T00:15:33.706Z,14.61
2023-05-16T00:16:33.535Z,14.66
2023-05-16T00:17:33.495Z,14.59
2023-05-16T00:18:33.557Z,14.68
2023-05-16T00:19:33.342Z,14.67
2023-05-16T00:20:33.682Z,14.61
2023-05-16T00:21:33.664Z,14.66
2023-05-16T00:22:33.223Z,14.58
2023-05-16T00:23:33.174Z,14.61
2023-05-16T00:24:33.363Z,14.61
2023-05-16T00:25:33.140Z,14.68
2023-05-16T00:26:33.188Z,14.63
2023-05-16T00:27:33.068Z,14.63
2023-05-16T00:28:33.012Z,14.55
2023-05-16T00:29:33.000Z,14.59
2023-05-16T00:30:32.866Z,14.62
2023-05-16T00:31:33.229Z,14.58
2023-05-16T00:32:32.839Z,14.56
2023-05-16T00:33:32.733Z,14.62
2023-05-16T00:34:32.775Z,14.61
2023-05-16T00:35:32.880Z,14.51
2023-05-16T00:36:32.615Z,14.51
2023-05-16T00:37:32.843Z,14.62
2023-05-16T00:38:32.548Z,14.51
2023-05-16T00:39:32.470Z,14.52
2023-05-16T00:40:32.823Z,14.56
2023-05-16T00:41:32.377Z,14.45
2023-05-16T00:42:32.473Z,14.62
2023-05-16T00:43:32.333Z,14.56
2023-05-16T00:44:32.496Z,14.55
2023-05-16T00:45:32.229Z,14.61
2023-05-16T00:46:32.378Z,14.59
2023-05-16T00:47:32.128Z,14.52
2023-05-16T00:48:32.319Z,14.55
2023-05-16T00:49:32.182Z,14.62
2023-05-16T00:50:31.988Z,14.58
2023-05-16T00:51:31.941Z,14.53
2023-05-16T00:52:32.179Z,14.62
2023-05-16T00:53:31.854Z,14.61
2023-05-16T00:54:31.957Z,14.62
2023-05-16T00:55:31.796Z,14.61
2023-05-16T00:56:31.725Z,14.61
2023-05-16T00:57:31.774Z,14.61
2023-05-16T00:58:31.635Z,14.67
2023-05-16T00:59:33.010Z,14.67
2023-05-16T01:00:31.554Z,14.63
2023-05-16T01:01:31.547Z,14.59
2023-05-16T01:02:31.612Z,14.61
2023-05-16T01:03:32.794Z,14.73
2023-05-16T01:04:31.661Z,14.67
2023-05-16T01:05:31.425Z,14.73
2023-05-16T01:06:31.290Z,14.74
2023-05-16T01:07:31.250Z,14.81
2023-05-16T01:08:32.253Z,14.70
2023-05-16T01:09:31.166Z,14.68
2023-05-16T01:10:31.258Z,14.74
2023-05-16T01:11:31.079Z,14.77
2023-05-16T01:12:31.079Z,14.81
2023-05-16T01:13:31.022Z,14.74
2023-05-16T01:14:31.077Z,14.79
2023-05-16T01:15:30.904Z,14.81
2023-05-16T01:16:31.466Z,14.85
2023-05-16T01:17:30.853Z,14.79
2023-05-16T01:18:30.789Z,14.78
2023-05-16T01:19:30.968Z,14.73
2023-05-16T01:20:30.665Z,14.87
2023-05-16T01:21:30.710Z,14.79
2023-05-16T01:22:30.635Z,14.90
2023-05-16T01:23:30.721Z,14.82
2023-05-16T01:24:30.494Z,14.90
2023-05-16T01:25:30.738Z,14.89
2023-05-16T01:26:30.449Z,14.89
2023-05-16T01:27:30.558Z,14.90
2023-05-16T01:28:30.416Z,14.87
2023-05-16T01:29:30.276Z,14.94
2023-05-16T01:30:30.253Z,14.96
2023-05-16T01:31:30.387Z,14.93
2023-05-16T01:32:30.159Z,14.87
2023-05-16T01:33:30.192Z,14.92
2023-05-16T01:34:30.055Z,14.86
2023-05-16T01:35:30.195Z,14.87
2023-05-16T01:36:30.377Z,14.85
2023-05-16T01:37:30.006Z,14.96
2023-05-16T01:38:29.927Z,14.93
2023-05-16T01:39:30.030Z,14.92
2023-05-16T01:40:30.033Z,14.87
2023-05-16T01:41:29.767Z,14.92
2023-05-16T01:42:29.836Z,14.89
2023-05-16T01:43:29.902Z,14.86
2023-05-16T01:44:29.854Z,14.92
2023-05-16T01:45:29.840Z,14.92
2023-05-16T01:46:29.588Z,14.90
2023-05-16T01:47:29.710Z,14.94
2023-05-16T01:48:29.529Z,14.89
2023-05-16T01:49:29.682Z,14.99
2023-05-16T01:50:29.370Z,14.97
2023-05-16T01:51:29.317Z,14.89
2023-05-16T01:52:29.270Z,14.89
2023-05-16T01:53:29.309Z,14.99
2023-05-16T01:54:29.222Z,14.89
2023-05-16T01:55:29.523Z,15.02
2023-05-16T01:56:29.101Z,14.99
2023-05-16T01:57:29.053Z,14.94
2023-05-16T01:58:29.634Z,14.90
2023-05-16T01:59:29.086Z,14.90
2023-05-16T02:00:28.922Z,14.86
2023-05-16T02:01:29.001Z,14.92
2023-05-16T02:02:29.055Z,14.96
2023-05-16T02:03:29.012Z,14.89
2023-05-16T02:04:28.748Z,14.94
2023-05-16T02:05:29.083Z,14.90
2023-05-16T02:06:28.686Z,14.85
2023-05-16T02:07:29.819Z,14.90
2023-05-16T02:08:28.594Z,14.94
2023-05-16T02:09:28.815Z,14.92
2023-05-16T02:10:28.494Z,14.90
2023-05-16T02:11:28.625Z,14.92
2023-05-16T02:12:28.687Z,14.89
2023-05-16T02:13:28.644Z,14.96
2023-05-16T02:14:28.337Z,14.97
2023-05-16T02:15:28.750Z,14.92
2023-05-16T02:16:28.266Z,14.94
2023-05-16T02:17:28.485Z,15.00
2023-05-16T02:18:28.424Z,14.90
2023-05-16T02:19:28.117Z,14.90
2023-05-16T02:20:28.075Z,15.10
2023-05-16T02:21:28.297Z,14.89
2023-05-16T02:22:27.970Z,14.97
2023-05-16T02:23:28.097Z,14.94
2023-05-16T02:24:27.876Z,15.00
2023-05-16T02:25:28.005Z,14.87
2023-05-16T02:26:27.913Z,14.87
2023-05-16T02:27:27.770Z,14.93
2023-05-16T02:28:27.922Z,14.90
2023-05-16T02:29:27.782Z,14.90
2023-05-16T02:30:27.645Z,14.87
2023-05-16T02:31:27.791Z,14.92
2023-05-16T02:32:27.792Z,14.99
2023-05-16T02:33:27.489Z,14.87
2023-05-16T02:34:27.564Z,14.94
2023-05-16T02:35:27.771Z,15.07
2023-05-16T02:36:27.366Z,15.05
2023-05-16T02:37:27.439Z,15.05
2023-05-16T02:38:27.389Z,15.08
2023-05-16T02:39:27.250Z,15.04
2023-05-16T02:40:27.398Z,15.02
2023-05-16T02:41:27.408Z,15.04
2023-05-16T02:42:27.110Z,14.99
2023-05-16T02:43:27.219Z,15.05
2023-05-16T02:44:27.091Z,15.00
2023-05-16T02:45:27.677Z,15.11
2023-05-16T02:46:26.928Z,15.00
2023-05-16T02:47:26.917Z,15.04
2023-05-16T02:48:26.843Z,15.07
2023-05-16T02:49:27.061Z,14.94
2023-05-16T02:50:26.751Z,14.99
2023-05-16T02:51:26.859Z,15.00
2023-05-16T02:52:26.655Z,14.97
2023-05-16T02:53:27.083Z,15.02
2023-05-16T02:54:26.576Z,14.96
2023-05-16T02:55:26.692Z,14.87
2023-05-16T02:56:26.530Z,14.90
2023-05-16T02:57:26.713Z,14.96
2023-05-16T02:58:26.509Z,14.93
2023-05-16T02:59:26.360Z,14.96
2023-05-16T03:00:26.938Z,14.97
2023-05-16T03:01:26.303Z,14.96
2023-05-16T03:02:26.406Z,14.89
2023-05-16T03:03:26.288Z,14.92
2023-05-16T03:04:26.345Z,14.87
2023-05-16T03:05:27.147Z,14.87
2023-05-16T03:06:26.170Z,14.85
2023-05-16T03:07:26.004Z,14.90
2023-05-16T03:08:26.172Z,14.89
2023-05-16T03:09:26.183Z,14.90
2023-05-16T03:10:25.873Z,14.85
2023-05-16T03:11:26.026Z,14.86
2023-05-16T03:12:26.040Z,14.82
2023-05-16T03:13:26.017Z,14.79
2023-05-16T03:14:25.701Z,14.78
2023-05-16T03:15:25.734Z,14.81
2023-05-16T03:16:25.860Z,14.66
2023-05-16T03:17:25.629Z,14.73
2023-05-16T03:18:25.678Z,14.66
2023-05-16T03:19:25.751Z,14.74
2023-05-16T03:20:25.438Z,14.62
2023-05-16T03:21:25.408Z,14.73
2023-05-16T03:22:25.463Z,14.73
2023-05-16T03:23:25.306Z,14.71
2023-05-16T03:24:25.564Z,14.68
2023-05-16T03:25:25.527Z,14.77
2023-05-16T03:26:25.171Z,14.59
2023-05-16T03:27:25.302Z,14.74
2023-05-16T03:28:25.131Z,14.74
2023-05-16T03:29:25.381Z,14.74
2023-05-16T03:30:25.028Z,14.73
2023-05-16T03:31:25.104Z,14.78
2023-05-16T03:32:24.996Z,14.74
2023-05-16T03:33:25.144Z,14.82
2023-05-16T03:34:24.834Z,14.78
2023-05-16T03:35:26.340Z,14.78
2023-05-16T03:36:24.763Z,14.74
2023-05-16T03:37:25.015Z,14.85
2023-05-16T03:38:24.759Z,14.74
2023-05-16T03:39:24.607Z,14.81
2023-05-16T03:40:24.801Z,14.85
2023-05-16T03:41:24.527Z,14.77
2023-05-16T03:42:24.506Z,14.82
2023-05-16T03:43:24.438Z,14.77
2023-05-16T03:44:24.633Z,14.81
2023-05-16T03:45:24.460Z,14.85
2023-05-16T03:46:24.465Z,14.81
2023-05-16T03:47:24.548Z,14.87
2023-05-16T03:48:24.267Z,14.86
2023-05-16T03:49:24.461Z,14.86
2023-05-16T03:50:24.172Z,14.92
2023-05-16T03:51:24.234Z,14.86
2023-05-16T03:52:24.045Z,14.86
2023-05-16T03:53:24.262Z,14.87
2023-05-16T03:54:23.951Z,14.87
2023-05-16T03:55:24.097Z,14.93
2023-05-16T03:56:23.892Z,14.82
2023-05-16T03:57:24.286Z,14.96
2023-05-16T03:58:23.798Z,14.93
2023-05-16T03:59:23.740Z,14.93
2023-05-16T04:00:23.696Z,14.82
2023-05-16T04:01:23.926Z,14.78
2023-05-16T04:02:23.860Z,14.81
2023-05-16T04:03:23.752Z,14.78
2023-05-16T04:04:23.510Z,14.85
2023-05-16T04:05:23.523Z,14.85
2023-05-16T04:06:23.549Z,14.82
2023-05-16T04:07:24.017Z,14.87
2023-05-16T04:08:23.542Z,14.86
2023-05-16T04:09:23.303Z,14.79
2023-05-16T04:10:23.251Z,14.81
2023-05-16T04:11:23.212Z,14.92
2023-05-16T04:12:23.367Z,14.85
2023-05-16T04:13:23.190Z,14.82
2023-05-16T04:14:23.386Z,14.78
2023-05-16T04:15:23.069Z,14.62
2023-05-16T04:16:23.028Z,14.62
2023-05-16T04:17:23.235Z,14.68
2023-05-16T04:18:22.918Z,14.74
2023-05-16T04:19:23.134Z,14.58
2023-05-16T04:20:22.853Z,14.61
2023-05-16T04:21:22.770Z,14.63
2023-05-16T04:22:22.737Z,14.61
2023-05-16T04:23:22.893Z,14.62
2023-05-16T04:24:23.173Z,14.68
2023-05-16T04:25:23.100Z,14.63
2023-05-16T04:26:22.582Z,14.63
2023-05-16T04:27:22.553Z,14.61
2023-05-16T04:28:22.487Z,14.61
2023-05-16T04:29:23.726Z,14.62
2023-05-16T04:30:22.385Z,14.73
2023-05-16T04:31:22.389Z,14.73
2023-05-16T04:32:22.727Z,14.79
2023-05-16T04:33:22.258Z,14.85
2023-05-16T04:34:22.509Z,14.81
2023-05-16T04:35:22.202Z,14.79
2023-05-16T04:36:23.344Z,14.79
2023-05-16T04:37:22.079Z,14.86
2023-05-16T04:38:22.050Z,14.97
2023-05-16T04:39:21.998Z,14.97
2023-05-16T04:40:23.373Z,14.90
2023-05-16T04:41:21.908Z,14.97
2023-05-16T04:42:22.081Z,14.90
2023-05-16T04:43:21.817Z,14.92
2023-05-16T04:44:22.900Z,14.97
2023-05-16T04:45:21.765Z,14.99
2023-05-16T04:46:22.042Z,15.05
2023-05-16T04:47:21.747Z,15.07
2023-05-16T04:48:21.748Z,15.02
2023-05-16T04:49:22.020Z,15.04
2023-05-16T04:50:21.518Z,15.04
2023-05-16T04:51:21.514Z,15.08
2023-05-16T04:52:21.454Z,15.11
2023-05-16T04:53:21.636Z,15.19
2023-05-16T04:54:21.339Z,15.08
2023-05-16T04:55:21.301Z,15.12
2023-05-16T04:56:25.770Z,15.18
2023-05-16T04:57:21.251Z,15.18
2023-05-16T04:58:21.459Z,15.18
2023-05-16T04:59:21.125Z,15.25
2023-05-16T05:00:21.087Z,15.22
2023-05-16T05:01:21.352Z,15.27
2023-05-16T05:02:21.286Z,15.25
2023-05-16T05:03:21.030Z,15.29
2023-05-16T05:04:23.399Z,15.32
2023-05-16T05:05:20.979Z,15.30
2023-05-16T05:06:20.850Z,15.29
2023-05-16T05:07:21.937Z,15.19
2023-05-16T05:08:20.732Z,15.18
2023-05-16T05:09:21.014Z,15.22
2023-05-16T05:10:20.644Z,15.19
2023-05-16T05:11:20.602Z,15.19
2023-05-16T05:12:20.790Z,15.18
2023-05-16T05:13:41.647Z,15.15
2023-05-16T05:14:20.513Z,15.04
2023-05-16T05:15:20.429Z,15.07
2023-05-16T05:16:21.584Z,15.12
2023-05-16T05:17:20.371Z,15.10
2023-05-16T05:18:20.621Z,15.12
2023-05-16T05:19:20.296Z,15.14
2023-05-16T05:20:20.591Z,15.12
2023-05-16T05:21:20.201Z,15.23
2023-05-16T05:22:20.455Z,15.26
2023-05-16T05:23:20.089Z,15.22
2023-05-16T05:24:20.225Z,15.35
2023-05-16T05:25:19.990Z,15.36
2023-05-16T05:26:21.251Z,15.32
2023-05-16T05:27:19.921Z,15.37
2023-05-16T05:28:19.862Z,15.47
2023-05-16T05:29:19.821Z,15.47
2023-05-16T05:30:20.057Z,15.52
2023-05-16T05:31:19.798Z,15.51
2023-05-16T05:32:19.871Z,15.48
2023-05-16T05:33:20.129Z,15.48
2023-05-16T05:34:19.610Z,15.55
2023-05-16T05:35:19.909Z,15.43
2023-05-16T05:36:19.516Z,15.41
2023-05-16T05:37:20.719Z,15.59
2023-05-16T05:38:19.432Z,15.52
2023-05-16T05:39:19.547Z,15.59
2023-05-16T05:40:19.338Z,15.57
2023-05-16T05:41:19.517Z,15.55
2023-05-16T05:42:19.267Z,15.51
2023-05-16T05:43:19.435Z,15.54
2023-05-16T05:44:19.172Z,15.54
2023-05-16T05:45:19.242Z,15.57
2023-05-16T05:46:19.136Z,15.57
2023-05-16T05:47:19.255Z,15.60
2023-05-16T05:48:18.998Z,15.55
2023-05-16T05:49:19.087Z,15.59
2023-05-16T05:50:18.928Z,15.59
2023-05-16T05:51:18.900Z,15.59
2023-05-16T05:52:18.892Z,15.69
2023-05-16T05:53:18.780Z,15.69
2023-05-16T05:54:18.897Z,15.69
2023-05-16T05:55:18.751Z,15.70
2023-05-16T05:56:18.705Z,15.72
2023-05-16T05:57:18.633Z,15.76
2023-05-16T05:58:18.755Z,15.69
2023-05-16T05:59:18.530Z,15.78
2023-05-16T06:03:51.117Z,15.83
2023-05-16T06:04:47.222Z,15.81
2023-05-16T06:05:47.282Z,15.81
2023-05-16T06:06:47.060Z,15.75
2023-05-16T06:07:47.265Z,15.80
2023-05-16T06:08:46.969Z,15.73
2023-05-16T06:09:47.070Z,15.69
2023-05-16T06:10:46.884Z,15.67
2023-05-16T06:11:46.885Z,15.70
2023-05-16T06:12:46.804Z,15.80
2023-05-16T06:13:47.919Z,15.75
2023-05-16T06:14:46.717Z,15.80
2023-05-16T06:15:46.711Z,15.80
2023-05-16T06:16:46.640Z,15.90
2023-05-16T06:17:46.786Z,15.91
2023-05-16T06:18:46.568Z,15.91
2023-05-16T06:19:47.974Z,15.92
2023-05-16T06:20:46.451Z,15.94
2023-05-16T06:21:46.553Z,15.98
2023-05-16T06:22:46.368Z,15.99
2023-05-16T06:23:46.560Z,16.02
2023-05-16T06:24:46.272Z,16.00
2023-05-16T06:25:46.369Z,16.12
2023-05-16T06:26:46.417Z,16.06
2023-05-16T06:27:46.383Z,16.17
2023-05-16T06:28:46.104Z,16.03
2023-05-16T06:29:46.065Z,16.13
2023-05-16T06:30:46.037Z,16.12
2023-05-16T06:31:47.161Z,15.92
2023-05-16T06:32:45.978Z,16.00
2023-05-16T06:33:46.330Z,15.96
2023-05-16T06:34:45.851Z,15.92
2023-05-16T06:35:45.813Z,15.91
2023-05-16T06:36:45.938Z,15.92
2023-05-16T06:37:45.731Z,15.88
2023-05-16T06:38:45.765Z,15.83
2023-05-16T06:39:45.667Z,15.72
2023-05-16T06:40:45.767Z,15.67
2023-05-16T06:41:45.548Z,15.84
2023-05-16T06:42:45.569Z,15.75
2023-05-16T06:43:45.474Z,15.73
2023-05-16T06:44:46.614Z,15.73
2023-05-16T06:45:45.450Z,15.69
2023-05-16T06:46:45.382Z,15.62
2023-05-16T06:47:45.349Z,15.63
2023-05-16T06:48:45.429Z,15.62
2023-05-16T06:49:45.207Z,15.54
2023-05-16T06:50:45.245Z,15.60
2023-05-16T06:51:45.154Z,15.66
2023-05-16T06:52:45.289Z,15.69
2023-05-16T06:53:45.031Z,15.76
2023-05-16T06:54:45.063Z,15.73
2023-05-16T06:55:44.948Z,15.75
2023-05-16T06:56:45.062Z,15.69
2023-05-16T06:57:44.913Z,15.57
2023-05-16T06:58:44.814Z,15.59
2023-05-16T06:59:44.773Z,15.67
2023-05-16T07:00:44.894Z,15.72
2023-05-16T07:01:44.771Z,15.69
2023-05-16T07:02:44.834Z,15.72
2023-05-16T07:03:44.845Z,15.73
2023-05-16T07:04:44.556Z,15.67
2023-05-16T07:05:45.745Z,15.76
2023-05-16T07:06:44.525Z,15.70
2023-05-16T07:07:44.534Z,15.81
2023-05-16T07:08:44.428Z,15.87
2023-05-16T07:09:44.542Z,15.81
2023-05-16T07:10:45.434Z,15.87
2023-05-16T07:11:44.363Z,15.91
2023-05-16T07:12:44.241Z,15.96
2023-05-16T07:13:44.373Z,15.98
2023-05-16T07:14:44.127Z,16.00
2023-05-16T07:15:44.085Z,15.99
2023-05-16T07:16:44.132Z,16.08
2023-05-16T07:17:44.428Z,15.99
2023-05-16T07:18:44.037Z,15.96
2023-05-16T07:19:44.005Z,15.96
2023-05-16T07:20:43.909Z,15.99
2023-05-16T07:21:45.095Z,15.94
2023-05-16T07:22:44.840Z,15.92
2023-05-16T07:23:43.772Z,15.94
2023-05-16T07:24:43.837Z,15.99
2023-05-16T07:25:44.943Z,15.98
2023-05-16T07:26:43.850Z,16.02
2023-05-16T07:27:43.571Z,16.02
2023-05-16T07:28:43.721Z,15.96
2023-05-16T07:29:43.514Z,15.94
2023-05-16T07:30:43.680Z,16.02
2023-05-16T07:31:43.435Z,16.00
2023-05-16T07:32:43.409Z,15.96
2023-05-16T07:33:43.317Z,16.05
2023-05-16T07:34:43.705Z,16.05
2023-05-16T07:35:43.267Z,16.06
2023-05-16T07:36:44.330Z,16.06
2023-05-16T07:37:43.144Z,16.13
2023-05-16T07:38:43.113Z,16.08
2023-05-16T07:39:43.115Z,16.13
2023-05-16T07:40:43.066Z,16.06
2023-05-16T07:41:44.158Z,16.08
2023-05-16T07:42:42.930Z,16.09
2023-05-16T07:43:42.952Z,15.98
2023-05-16T07:44:42.838Z,15.99
2023-05-16T07:45:43.008Z,15.96
2023-05-16T07:46:43.299Z,16.00
2023-05-16T07:47:43.828Z,16.02
2023-05-16T07:48:42.731Z,16.02
2023-05-16T07:49:42.805Z,16.02
2023-05-16T07:50:42.589Z,16.00
2023-05-16T07:51:42.598Z,15.99
2023-05-16T07:52:42.741Z,15.99
2023-05-16T07:53:42.607Z,15.90
2023-05-16T07:54:42.662Z,15.85
2023-05-16T07:55:42.625Z,15.73
2023-05-16T07:56:42.323Z,15.80
2023-05-16T07:58:03.531Z,15.78
2023-05-16T07:58:42.248Z,15.81
2023-05-16T07:59:42.242Z,15.83
2023-05-16T08:00:42.256Z,15.81
2023-05-16T08:01:42.257Z,15.80
2023-05-16T08:02:42.285Z,15.90
2023-05-16T08:03:49.812Z,15.88
2023-05-16T08:04:41.991Z,15.88
2023-05-16T08:05:42.115Z,15.98
2023-05-16T08:06:41.899Z,16.00
2023-05-16T08:07:41.854Z,15.92
2023-05-16T08:08:42.922Z,16.02
2023-05-16T08:09:41.791Z,16.05
2023-05-16T08:10:42.948Z,16.05
2023-05-16T08:11:41.776Z,16.17
2023-05-16T08:12:41.729Z,16.16
2023-05-16T08:13:41.593Z,16.17
2023-05-16T08:14:41.756Z,16.21
2023-05-16T08:15:41.517Z,16.09
2023-05-16T08:16:41.799Z,16.06
2023-05-16T08:17:41.486Z,16.12
2023-05-16T08:18:41.408Z,16.09
2023-05-16T08:19:41.343Z,16.16
2023-05-16T08:20:41.383Z,16.25
2023-05-16T08:21:41.253Z,16.28
2023-05-16T08:22:41.556Z,16.32
2023-05-16T08:23:41.415Z,16.43
2023-05-16T08:24:41.215Z,16.44
2023-05-16T08:25:41.079Z,16.44
2023-05-16T08:26:42.239Z,16.44
2023-05-16T08:27:40.998Z,16.49
2023-05-16T08:28:41.009Z,16.58
2023-05-16T08:29:41.051Z,16.64
2023-05-16T08:30:42.778Z,16.50
2023-05-16T08:31:40.885Z,16.58
2023-05-16T08:32:40.897Z,16.57
2023-05-16T08:33:40.905Z,16.65
2023-05-16T08:34:40.867Z,16.62
2023-05-16T08:35:40.690Z,16.57
2023-05-16T08:36:41.749Z,16.39
2023-05-16T08:37:40.564Z,16.40
2023-05-16T08:38:40.561Z,16.44
2023-05-16T08:39:41.725Z,16.44
2023-05-16T08:40:40.564Z,16.37
2023-05-16T08:41:40.420Z,16.29
2023-05-16T08:42:40.384Z,16.26
2023-05-16T08:43:42.568Z,16.37
2023-05-16T08:44:40.266Z,16.26
2023-05-16T08:45:40.336Z,16.28
2023-05-16T08:46:40.238Z,16.25
2023-05-16T08:47:40.181Z,16.16
2023-05-16T08:48:40.115Z,16.06
2023-05-16T08:49:40.366Z,16.06
2023-05-16T08:50:40.026Z,16.06
2023-05-16T08:51:41.195Z,16.10
2023-05-16T08:52:39.931Z,16.16
2023-05-16T08:53:39.891Z,15.99
2023-05-16T08:54:41.015Z,15.88
2023-05-16T08:55:40.033Z,15.84
2023-05-16T08:56:40.846Z,15.92
2023-05-16T08:57:39.735Z,15.78
2023-05-16T08:58:39.818Z,15.67
2023-05-16T08:59:39.630Z,15.60
2023-05-16T09:00:43.128Z,15.69
2023-05-16T09:01:39.637Z,15.73
2023-05-16T09:02:40.893Z,15.67
2023-05-16T09:03:39.492Z,15.57
2023-05-16T09:04:39.597Z,15.59
2023-05-16T09:05:39.375Z,15.65
2023-05-16T09:06:40.599Z,15.62
2023-05-16T09:07:39.308Z,15.51
2023-05-16T09:08:39.682Z,15.60
2023-05-16T09:09:39.231Z,15.57
2023-05-16T09:10:39.194Z,15.60
2023-05-16T09:11:40.332Z,15.60
2023-05-16T09:12:39.111Z,15.55
2023-05-16T09:13:39.113Z,15.57
2023-05-16T09:14:39.037Z,15.70
2023-05-16T09:15:39.155Z,15.72
2023-05-16T09:16:38.987Z,15.63
2023-05-16T09:17:39.996Z,15.57
2023-05-16T09:18:38.898Z,15.57
2023-05-16T09:19:40.085Z,15.54
2023-05-16T09:20:38.731Z,15.43
2023-05-16T09:21:38.985Z,15.30
2023-05-16T09:22:40.884Z,15.22
2023-05-16T09:23:38.787Z,15.12
2023-05-16T09:24:38.566Z,15.05
2023-05-16T09:25:39.617Z,14.97
2023-05-16T09:26:38.558Z,14.93
2023-05-16T09:27:39.688Z,14.86
2023-05-16T09:28:38.451Z,14.73
2023-05-16T09:29:38.663Z,14.58
2023-05-16T09:30:38.298Z,14.62
2023-05-16T09:31:38.561Z,14.66
2023-05-16T09:32:38.317Z,14.61
2023-05-16T09:33:38.174Z,14.58
2023-05-16T09:34:38.241Z,14.53
2023-05-16T09:35:45.129Z,14.37
2023-05-16T09:36:38.265Z,14.34
2023-05-16T09:37:38.008Z,14.36
2023-05-16T09:38:38.063Z,14.33
2023-05-16T09:39:37.909Z,14.28
2023-05-16T09:40:39.113Z,14.22
2023-05-16T09:41:37.816Z,14.13
2023-05-16T09:42:39.117Z,14.08
2023-05-16T09:43:38.287Z,14.12
2023-05-16T09:44:37.701Z,14.08
2023-05-16T09:45:37.659Z,14.04
2023-05-16T09:46:37.760Z,14.03
2023-05-16T09:47:37.599Z,14.04
2023-05-16T09:48:37.726Z,13.89
2023-05-16T09:49:37.488Z,13.94
2023-05-16T09:50:37.449Z,13.91
2023-05-16T09:51:37.391Z,13.86
2023-05-16T09:52:37.555Z,14.04
2023-05-16T09:53:37.313Z,14.12
2023-05-16T09:54:37.571Z,13.98
2023-05-16T09:55:37.247Z,14.11
2023-05-16T09:56:37.171Z,14.15
2023-05-16T09:57:38.230Z,14.07
2023-05-16T09:58:37.088Z,14.16
2023-05-16T09:59:38.218Z,14.19
2023-05-16T10:00:37.461Z,14.20
2023-05-16T10:01:37.227Z,14.19
2023-05-16T10:02:36.984Z,14.26
2023-05-16T10:03:37.169Z,14.33
2023-05-16T10:04:36.825Z,14.48
2023-05-16T10:05:37.038Z,14.53
2023-05-16T10:06:36.769Z,14.67
2023-05-16T10:07:36.688Z,14.63
2023-05-16T10:08:37.352Z,14.77
2023-05-16T10:09:37.067Z,14.81
2023-05-16T10:10:36.564Z,14.87
2023-05-16T10:11:36.688Z,14.96
2023-05-16T10:12:36.465Z,14.97
2023-05-16T10:13:36.419Z,15.00
2023-05-16T10:14:36.384Z,15.12
2023-05-16T10:15:36.561Z,15.22
2023-05-16T10:16:36.384Z,15.37
2023-05-16T10:17:36.303Z,15.43
2023-05-16T10:18:37.422Z,15.48
2023-05-16T10:19:37.341Z,15.55
2023-05-16T10:20:36.130Z,15.55
2023-05-16T10:21:37.357Z,15.65
2023-05-16T10:22:36.040Z,15.72
2023-05-16T10:23:37.382Z,15.67
2023-05-16T10:24:36.222Z,15.80
2023-05-16T10:25:35.910Z,15.85
2023-05-16T10:26:36.991Z,15.98
2023-05-16T10:27:35.836Z,16.02
2023-05-16T10:28:36.415Z,16.12
2023-05-16T10:29:46.437Z,16.03
2023-05-16T10:30:35.755Z,16.13
2023-05-16T10:31:35.715Z,16.21
2023-05-16T10:32:35.831Z,16.28
2023-05-16T10:33:35.563Z,16.41
2023-05-16T10:34:37.041Z,16.44
2023-05-16T10:35:35.489Z,16.59
2023-05-16T10:36:35.498Z,16.65
2023-05-16T10:37:35.405Z,16.79
2023-05-16T10:38:35.838Z,16.77
2023-05-16T10:39:35.311Z,16.83
2023-05-16T10:40:35.446Z,16.79
2023-05-16T10:41:35.235Z,16.98
2023-05-16T10:42:35.211Z,17.05
2023-05-16T10:43:35.266Z,17.24
2023-05-16T10:44:35.318Z,17.32
2023-05-16T10:45:35.338Z,17.42
2023-05-16T10:46:35.114Z,17.35
2023-05-16T10:47:35.116Z,17.23
2023-05-16T10:48:34.945Z,17.04
2023-05-16T10:49:35.127Z,16.86
2023-05-16T10:50:34.887Z,16.72
2023-05-16T10:51:36.161Z,16.64
2023-05-16T10:52:34.781Z,16.68
2023-05-16T10:53:34.767Z,16.54
2023-05-16T10:54:34.696Z,16.58
2023-05-16T10:55:34.947Z,16.58
2023-05-16T10:56:34.714Z,16.43
2023-05-16T10:57:34.783Z,16.37
2023-05-16T10:58:34.562Z,16.36
2023-05-16T10:59:34.487Z,16.39
2023-05-16T11:00:35.685Z,16.46
2023-05-16T11:01:34.419Z,16.39
2023-05-16T11:02:34.936Z,16.40
2023-05-16T11:03:34.404Z,16.49
2023-05-16T11:04:34.399Z,16.46
2023-05-16T11:05:34.229Z,16.43
2023-05-16T11:06:34.477Z,16.51
2023-05-16T11:07:34.153Z,16.43
2023-05-16T11:08:34.421Z,16.32
2023-05-16T11:09:34.063Z,16.31
2023-05-16T11:10:34.084Z,16.16
2023-05-16T11:11:33.984Z,16.09
2023-05-16T11:12:34.050Z,16.13
2023-05-16T11:13:33.897Z,16.18
2023-05-16T11:14:34.476Z,16.12
2023-05-16T11:15:33.824Z,16.21
2023-05-16T11:16:33.830Z,16.08
2023-05-16T11:17:33.755Z,16.12
2023-05-16T11:18:35.964Z,15.99
2023-05-16T11:19:33.641Z,15.90
2023-05-16T11:20:35.941Z,15.91
2023-05-16T11:21:33.553Z,15.81
2023-05-16T11:22:33.765Z,15.81
2023-05-16T11:23:54.600Z,15.78
2023-05-16T11:24:33.464Z,15.80
2023-05-16T11:25:33.540Z,15.88
2023-05-16T11:26:33.387Z,15.83
2023-05-16T11:27:33.306Z,15.80
2023-05-16T11:28:33.253Z,15.76
2023-05-16T11:29:34.578Z,15.66
2023-05-16T11:30:33.180Z,15.70
2023-05-16T11:31:35.430Z,15.59
2023-05-16T11:32:33.242Z,15.54
2023-05-16T11:33:33.038Z,15.55
2023-05-16T11:34:33.179Z,15.65
2023-05-16T11:35:32.955Z,15.59
2023-05-16T11:36:33.194Z,15.44
2023-05-16T11:37:33.050Z,15.33
2023-05-16T11:38:53.914Z,15.22
2023-05-16T11:39:32.849Z,15.11
2023-05-16T11:40:33.033Z,15.12
2023-05-16T11:41:32.704Z,15.02
2023-05-16T11:42:32.831Z,14.87
2023-05-16T11:43:32.612Z,14.92
2023-05-16T11:44:32.900Z,14.96
2023-05-16T11:45:32.549Z,15.07
2023-05-16T11:46:32.711Z,14.90
2023-05-16T11:47:32.529Z,14.89
2023-05-16T11:48:36.469Z,14.77
2023-05-16T11:49:32.357Z,14.79
2023-05-16T11:50:32.413Z,14.89
2023-05-16T11:51:34.745Z,14.87
2023-05-16T11:52:32.307Z,14.86
2023-05-16T11:53:32.297Z,14.92
2023-05-16T11:54:32.147Z,14.93
2023-05-16T11:55:41.375Z,14.97
2023-05-16T11:56:32.239Z,14.87
2023-05-16T11:57:32.122Z,14.89
2023-05-16T11:58:33.413Z,14.99
2023-05-16T11:59:32.148Z,15.07
2023-05-16T12:00:31.870Z,15.05
2023-05-16T12:01:31.883Z,15.08
2023-05-16T12:02:31.905Z,15.07
2023-05-16T12:03:32.034Z,15.04
2023-05-16T12:04:31.840Z,15.04
2023-05-16T12:05:32.191Z,15.05
2023-05-16T12:06:31.618Z,15.15
2023-05-16T12:07:32.212Z,15.19
2023-05-16T12:08:31.534Z,15.22
2023-05-16T12:09:31.533Z,15.11
2023-05-16T12:10:31.625Z,15.04
2023-05-16T12:11:31.413Z,15.12
2023-05-16T12:12:31.627Z,15.02
2023-05-16T12:13:31.312Z,14.96
2023-05-16T12:14:32.665Z,14.93
2023-05-16T12:15:31.535Z,14.92
2023-05-16T12:16:31.462Z,14.93
2023-05-16T12:17:31.214Z,14.93
2023-05-16T12:18:31.169Z,14.94
2023-05-16T12:19:31.145Z,14.94
2023-05-16T12:20:31.273Z,14.93
2023-05-16T12:21:30.974Z,15.10
2023-05-16T12:22:33.132Z,15.08
2023-05-16T12:23:31.281Z,14.99
2023-05-16T12:24:30.904Z,14.90
2023-05-16T12:25:32.169Z,14.97
2023-05-16T12:26:30.823Z,15.10
2023-05-16T12:27:31.016Z,15.07
2023-05-16T12:28:30.710Z,15.00
2023-05-16T12:29:30.692Z,15.04
2023-05-16T12:30:31.140Z,15.14
2023-05-16T12:31:32.277Z,15.17
2023-05-16T12:32:30.729Z,15.18
2023-05-16T12:33:30.572Z,15.23
2023-05-16T12:34:30.665Z,15.18
2023-05-16T12:35:30.728Z,15.25
2023-05-16T12:36:30.473Z,15.27
2023-05-16T12:37:30.286Z,15.22
2023-05-16T12:38:31.406Z,15.26
2023-05-16T12:39:30.184Z,15.35
2023-05-16T12:40:30.551Z,15.41
2023-05-16T12:41:30.126Z,15.41
2023-05-16T12:42:30.315Z,15.41
2023-05-16T12:43:30.540Z,15.32
2023-05-16T12:44:31.143Z,15.41
2023-05-16T12:45:29.933Z,15.44
2023-05-16T12:46:29.999Z,15.52
2023-05-16T12:47:29.874Z,15.55
2023-05-16T12:48:29.943Z,15.57
2023-05-16T12:49:30.065Z,15.67
2023-05-16T12:50:31.054Z,15.73
2023-05-16T12:51:29.671Z,15.78
2023-05-16T12:52:29.622Z,15.80
2023-05-16T12:53:29.773Z,15.73
2023-05-16T12:54:29.585Z,15.69
2023-05-16T12:55:29.801Z,15.66